Time;durP1;ratioP1;P1;durP2;ratioP2;P2;SDS_P1;SDS_P2;PMS_P1;PMS_P2;Temp;Humidity;BMP_temperature;BMP_pressure;BME280_temperature;BME280_humidity;BME280_pressure;Samples;Min_cycle;Max_cycle;Signal;HPM_P1;HPM_P2
2021/12/10 00:01:07;;;;;;;10.77;6.50;;;5.50;99.90;;;;;;5066328;28;20729;-76
2021/12/10 00:03:37;;;;;;;11.10;6.30;;;5.50;99.90;;;;;;5056146;28;20287;-75
2021/12/10 00:06:10;;;;;;;8.88;7.30;;;5.50;99.90;;;;;;5053694;28;20241;-77
2021/12/10 00:08:39;;;;;;;9.88;7.15;;;5.50;99.90;;;;;;5052817;28;20605;-76
2021/12/10 00:11:09;;;;;;;11.75;6.38;;;5.50;99.90;;;;;;5052887;28;20734;-76
2021/12/10 00:13:37;;;;;;;8.82;5.97;;;5.50;99.90;;;;;;5053584;28;20211;-76
2021/12/10 00:16:05;;;;;;;9.95;7.13;;;5.40;99.90;;;;;;5056009;28;20290;-76
2021/12/10 00:18:36;;;;;;;9.35;7.22;;;5.40;99.90;;;;;;5053580;28;20242;-76
2021/12/10 00:21:06;;;;;;;7.82;5.85;;;5.40;99.90;;;;;;5047916;28;20232;-75
2021/12/10 00:23:33;;;;;;;12.38;7.78;;;5.30;99.90;;;;;;5052997;28;20689;-75
2021/12/10 00:26:03;;;;;;;9.90;5.80;;;5.40;99.90;;;;;;5053841;28;20208;-77
2021/12/10 00:28:33;;;;;;;11.85;6.47;;;5.40;99.90;;;;;;5053004;28;20265;-76
2021/12/10 00:31:15;;;;;;;13.35;7.80;;;5.40;99.90;;;;;;5052929;28;20219;-76
2021/12/10 00:33:47;;;;;;;12.77;6.75;;;5.30;99.90;;;;;;5053125;28;20658;-76
2021/12/10 00:36:14;;;;;;;11.15;7.65;;;5.30;99.90;;;;;;5053614;28;20290;-77
2021/12/10 00:38:41;;;;;;;9.00;6.75;;;5.20;99.90;;;;;;5053949;28;20286;-75
2021/12/10 00:41:09;;;;;;;12.18;7.32;;;5.30;99.90;;;;;;5053896;28;20295;-75
2021/12/10 00:43:38;;;;;;;13.85;6.10;;;5.40;99.90;;;;;;5054270;28;20275;-75
2021/12/10 00:46:07;;;;;;;8.55;6.22;;;5.40;99.90;;;;;;5053394;28;20290;-76
2021/12/10 00:48:34;;;;;;;10.70;7.22;;;5.30;99.90;;;;;;5053337;28;20296;-76
2021/12/10 00:51:03;;;;;;;7.47;5.55;;;5.30;99.90;;;;;;5052619;28;20310;-75
2021/12/10 00:53:29;;;;;;;9.48;7.35;;;5.30;99.90;;;;;;5052791;28;20298;-76
2021/12/10 00:55:56;;;;;;;11.63;7.50;;;5.30;99.90;;;;;;5052850;28;20203;-76
2021/12/10 00:58:24;;;;;;;10.98;7.78;;;5.30;99.90;;;;;;5052708;28;20286;-76
2021/12/10 01:00:56;;;;;;;12.00;8.07;;;5.20;99.90;;;;;;5052084;28;20733;-76
2021/12/10 01:03:28;;;;;;;19.83;8.40;;;5.20;99.90;;;;;;5050356;28;20196;-77
2021/12/10 01:06:06;;;;;;;9.18;6.72;;;5.20;99.90;;;;;;5053587;28;20206;-77
2021/12/10 01:08:34;;;;;;;14.68;8.15;;;5.20;99.90;;;;;;5053758;28;20238;-76
2021/12/10 01:11:05;;;;;;;10.45;7.20;;;5.10;99.90;;;;;;5053926;28;20227;-76
2021/12/10 01:13:35;;;;;;;14.45;9.80;;;5.20;99.90;;;;;;5055845;28;20223;-77
2021/12/10 01:23:38;;;;;;;13.73;8.57;;;5.20;99.90;;;;;;5059717;28;20265;-75
2021/12/10 01:24:51;;;;;;;9.15;7.50;;;5.10;99.90;;;;;;5050087;28;20265;-77
2021/12/10 01:27:28;;;;;;;10.85;7.45;;;5.10;99.90;;;;;;5054928;28;20195;-76
2021/12/10 01:29:58;;;;;;;11.15;7.60;;;5.10;99.90;;;;;;5028138;28;20294;-76
2021/12/10 01:32:28;;;;;;;10.95;6.35;;;5.20;99.90;;;;;;5052372;28;20211;-77
2021/12/10 01:34:57;;;;;;;13.73;7.25;;;5.10;99.90;;;;;;5056621;28;20219;-76
2021/12/10 01:37:25;;;;;;;10.45;7.63;;;5.10;99.90;;;;;;5055965;28;20290;-76
2021/12/10 01:39:53;;;;;;;9.32;6.60;;;5.10;99.90;;;;;;5054928;28;20248;-76
2021/12/10 01:42:34;;;;;;;15.13;7.50;;;5.10;99.90;;;;;;5055999;28;20211;-76
2021/12/10 01:45:05;;;;;;;11.18;7.70;;;5.10;99.90;;;;;;5056282;28;20196;-75
2021/12/10 01:47:35;;;;;;;11.40;8.15;;;5.10;99.90;;;;;;5056142;28;20211;-76
2021/12/10 01:50:05;;;;;;;8.02;7.20;;;5.20;99.90;;;;;;5055300;28;20297;-76
2021/12/10 01:52:38;;;;;;;8.35;7.00;;;5.20;99.90;;;;;;5055465;28;20713;-76
2021/12/10 01:55:07;;;;;;;13.13;8.55;;;5.20;99.90;;;;;;5055765;28;20310;-76
2021/12/10 01:57:37;;;;;;;11.68;7.65;;;5.10;99.90;;;;;;5056168;28;20299;-76
2021/12/10 02:00:08;;;;;;;10.90;7.05;;;5.20;99.90;;;;;;5055546;28;20305;-75
2021/12/10 02:02:35;;;;;;;11.57;6.15;;;5.20;99.90;;;;;;5055372;28;20219;-76
2021/12/10 02:05:05;;;;;;;7.95;5.53;;;5.20;99.90;;;;;;5055887;28;20242;-76
2021/12/10 02:07:32;;;;;;;12.82;7.18;;;5.20;99.90;;;;;;5055833;28;20674;-76
2021/12/10 02:10:00;;;;;;;11.20;7.35;;;5.30;99.90;;;;;;5055408;28;20282;-75
2021/12/10 02:12:27;;;;;;;9.50;6.97;;;5.20;99.90;;;;;;5055566;28;20230;-75
2021/12/10 02:15:00;;;;;;;14.40;8.70;;;5.30;99.90;;;;;;5055509;28;20223;-77
2021/12/10 02:17:30;;;;;;;15.32;8.35;;;5.30;99.90;;;;;;5032029;28;20287;-74
2021/12/10 02:19:57;;;;;;;8.75;6.18;;;5.30;99.90;;;;;;5060898;28;20219;-76
2021/12/10 02:22:26;;;;;;;10.60;7.43;;;5.30;99.90;;;;;;5056354;28;20741;-75
2021/12/10 02:24:53;;;;;;;10.45;7.03;;;5.30;99.90;;;;;;5055801;28;20231;-75
2021/12/10 02:27:19;;;;;;;15.65;7.78;;;5.30;99.90;;;;;;5053446;28;20235;-75
2021/12/10 02:29:46;;;;;;;9.00;6.65;;;5.30;99.90;;;;;;5054636;28;20237;-75
2021/12/10 02:32:15;;;;;;;11.25;6.80;;;5.30;99.90;;;;;;5052503;28;20235;-76
2021/12/10 02:34:44;;;;;;;18.92;8.93;;;5.20;99.90;;;;;;5049502;28;20333;-77
2021/12/10 02:37:11;;;;;;;11.10;7.00;;;5.20;99.90;;;;;;5055263;28;20206;-76
2021/12/10 02:39:39;;;;;;;12.35;8.43;;;5.20;99.90;;;;;;5055474;28;20297;-76
2021/12/10 02:42:07;;;;;;;12.68;7.88;;;5.20;99.90;;;;;;5055458;28;20207;-76
2021/12/10 02:44:34;;;;;;;9.50;6.70;;;5.20;99.90;;;;;;5054537;28;20218;-76
2021/12/10 02:47:02;;;;;;;14.80;8.13;;;5.20;99.90;;;;;;5042808;28;20649;-77
2021/12/10 02:49:31;;;;;;;13.15;7.90;;;5.20;99.90;;;;;;5044171;28;20192;-76
2021/12/10 02:51:58;;;;;;;16.23;7.45;;;5.20;99.90;;;;;;5055298;28;20306;-76
2021/12/10 02:54:34;;;;;;;11.75;7.78;;;5.20;99.90;;;;;;5054208;28;20300;-76
2021/12/10 02:57:05;;;;;;;11.57;7.72;;;5.20;99.90;;;;;;5030289;28;20203;-76
2021/12/10 02:59:33;;;;;;;10.95;8.02;;;5.20;99.90;;;;;;5048982;28;20253;-78
2021/12/10 03:02:00;;;;;;;11.80;7.85;;;5.20;99.90;;;;;;5054689;28;20299;-76
2021/12/10 03:04:28;;;;;;;12.18;7.93;;;5.20;99.90;;;;;;5055862;28;20262;-76
2021/12/10 03:06:58;;;;;;;10.15;6.70;;;5.30;99.90;;;;;;5055993;28;20199;-77
2021/12/10 03:09:26;;;;;;;11.02;7.30;;;5.30;99.90;;;;;;5059115;28;20235;-75
2021/12/10 03:11:56;;;;;;;25.85;14.77;;;5.20;99.90;;;;;;5055338;28;20613;-75
2021/12/10 03:14:29;;;;;;;9.45;6.60;;;5.20;99.90;;;;;;5050004;28;20251;-76
2021/12/10 03:17:01;;;;;;;12.25;7.00;;;5.10;99.90;;;;;;5060217;28;20221;-74
2021/12/10 03:19:29;;;;;;;13.38;7.88;;;5.20;99.90;;;;;;5060552;28;20202;-72
2021/12/10 03:21:56;;;;;;;16.08;8.68;;;5.10;99.90;;;;;;5054312;28;20218;-75
2021/12/10 03:24:27;;;;;;;11.38;7.70;;;5.20;99.90;;;;;;5057636;28;20717;-74
2021/12/10 03:26:57;;;;;;;9.60;7.32;;;5.20;99.90;;;;;;5053661;28;20291;-75
2021/12/10 03:29:28;;;;;;;9.20;7.18;;;5.20;99.90;;;;;;5049870;28;20218;-75
2021/12/10 03:32:01;;;;;;;13.60;7.72;;;5.20;99.90;;;;;;5048699;28;20251;-74
2021/12/10 03:34:28;;;;;;;11.93;8.27;;;5.30;99.90;;;;;;5052644;28;20736;-74
2021/12/10 03:36:56;;;;;;;12.82;8.60;;;5.20;99.90;;;;;;5052815;28;20286;-76
2021/12/10 03:39:26;;;;;;;9.23;7.10;;;5.10;99.90;;;;;;5052737;28;20299;-76
2021/12/10 03:41:57;;;;;;;13.57;8.18;;;5.10;99.90;;;;;;5051201;28;20265;-75
2021/12/10 03:44:25;;;;;;;14.95;8.73;;;5.10;99.90;;;;;;5050932;28;20199;-75
2021/12/10 03:46:54;;;;;;;12.35;8.20;;;5.20;99.90;;;;;;5060668;28;20207;-75
2021/12/10 03:49:21;;;;;;;12.20;8.27;;;5.20;99.90;;;;;;5053111;28;20203;-75
2021/12/10 03:51:49;;;;;;;10.13;7.35;;;5.10;99.90;;;;;;5049911;28;20632;-75
2021/12/10 03:54:17;;;;;;;16.73;9.20;;;5.10;99.90;;;;;;5053430;28;20662;-74
2021/12/10 03:56:48;;;;;;;11.15;8.07;;;5.10;99.90;;;;;;5054436;28;20207;-74
2021/12/10 03:59:18;;;;;;;14.05;9.10;;;5.10;99.90;;;;;;5057582;28;20279;-75
2021/12/10 04:01:51;;;;;;;11.75;8.27;;;5.20;99.90;;;;;;5052416;28;20702;-74
2021/12/10 04:04:21;;;;;;;11.25;8.23;;;5.20;99.90;;;;;;5053041;28;20202;-76
2021/12/10 04:06:48;;;;;;;14.23;10.00;;;5.20;99.90;;;;;;5059130;28;20192;-74
2021/12/10 04:09:16;;;;;;;11.30;8.55;;;5.10;99.90;;;;;;5052972;28;20390;-75
2021/12/10 04:11:44;;;;;;;13.07;8.93;;;5.10;99.90;;;;;;5052885;28;20228;-73
2021/12/10 04:14:11;;;;;;;14.55;9.57;;;5.00;99.90;;;;;;5052608;28;20263;-76
2021/12/10 04:16:39;;;;;;;13.98;8.95;;;5.00;99.90;;;;;;5049854;28;20195;-75
2021/12/10 04:19:12;;;;;;;11.40;7.82;;;5.00;99.90;;;;;;5052771;28;20283;-75
2021/12/10 04:21:41;;;;;;;14.52;8.80;;;4.90;99.90;;;;;;5051275;28;20698;-75
2021/12/10 04:24:10;;;;;;;16.15;10.02;;;4.90;99.90;;;;;;5055777;28;20226;-73
2021/12/10 04:26:38;;;;;;;10.43;7.47;;;4.90;99.90;;;;;;5052145;28;20199;-74
2021/12/10 04:29:06;;;;;;;14.63;8.82;;;4.90;99.90;;;;;;5052685;28;20263;-75
2021/12/10 04:31:33;;;;;;;13.77;8.48;;;4.80;99.90;;;;;;5051606;28;20539;-75
2021/12/10 04:34:01;;;;;;;12.38;8.18;;;4.90;99.90;;;;;;5049730;28;20215;-74
2021/12/10 04:36:30;;;;;;;15.02;9.10;;;4.90;99.90;;;;;;5053281;28;20286;-74
2021/12/10 04:38:57;;;;;;;12.02;8.90;;;4.90;99.90;;;;;;5051145;28;20286;-77
2021/12/10 04:41:25;;;;;;;13.82;9.32;;;4.80;99.90;;;;;;5060104;28;20318;-74
2021/12/10 04:43:52;;;;;;;11.15;8.63;;;4.90;99.90;;;;;;5062271;28;20219;-75
2021/12/10 04:46:20;;;;;;;16.42;10.45;;;4.90;99.90;;;;;;5059844;28;20306;-75
2021/12/10 04:48:51;;;;;;;13.93;10.02;;;4.90;99.90;;;;;;5053134;28;20208;-76
2021/12/10 04:51:20;;;;;;;13.38;8.95;;;4.90;99.90;;;;;;5061025;28;20226;-75
2021/12/10 04:54:10;;;;;;;12.43;9.48;;;4.90;99.90;;;;;;5060660;28;20211;-76
2021/12/10 04:56:39;;;;;;;17.05;10.80;;;5.00;99.90;;;;;;5056337;28;20197;-76
2021/12/10 04:59:11;;;;;;;17.27;9.43;;;5.00;99.90;;;;;;5052941;28;20204;-75
2021/12/10 05:01:38;;;;;;;12.70;9.77;;;5.10;99.90;;;;;;5062088;28;20219;-75
2021/12/10 05:04:09;;;;;;;16.30;10.55;;;5.00;99.90;;;;;;5071316;28;20270;-75
2021/12/10 05:06:37;;;;;;;16.00;9.90;;;5.10;99.90;;;;;;5053588;28;20216;-75
2021/12/10 05:09:07;;;;;;;16.00;9.55;;;5.00;99.90;;;;;;5056978;28;20295;-75
2021/12/10 05:11:34;;;;;;;19.55;10.45;;;5.00;99.90;;;;;;5056446;28;20255;-75
2021/12/10 05:14:01;;;;;;;19.50;10.25;;;5.00;99.90;;;;;;5056780;28;20214;-75
2021/12/10 05:16:28;;;;;;;12.65;9.90;;;5.00;99.90;;;;;;5056858;28;20231;-75
2021/12/10 05:18:59;;;;;;;12.68;9.30;;;4.90;99.90;;;;;;5067647;28;20691;-75
2021/12/10 05:21:29;;;;;;;21.23;11.35;;;4.90;99.90;;;;;;5059639;28;20230;-76
2021/12/10 05:23:56;;;;;;;15.43;9.80;;;4.90;99.90;;;;;;5056092;28;20290;-76
2021/12/10 05:26:25;;;;;;;11.15;9.00;;;4.90;99.90;;;;;;5058101;28;20567;-76
2021/12/10 05:28:52;;;;;;;13.05;8.88;;;4.90;99.90;;;;;;5061837;28;20687;-75
2021/12/10 05:31:19;;;;;;;16.92;10.68;;;4.90;99.90;;;;;;5051422;28;20307;-75
2021/12/10 05:33:46;;;;;;;13.13;9.90;;;4.90;99.90;;;;;;5056433;28;20282;-75
2021/12/10 05:36:13;;;;;;;17.30;10.35;;;4.80;99.90;;;;;;5055115;28;20242;-75
2021/12/10 05:38:40;;;;;;;16.80;10.82;;;4.80;99.90;;;;;;5048212;28;20202;-76
2021/12/10 05:41:10;;;;;;;16.48;10.15;;;4.80;99.90;;;;;;5054891;28;20573;-75
2021/12/10 05:43:42;;;;;;;13.32;9.70;;;4.90;99.90;;;;;;5055250;28;20216;-75
2021/12/10 05:46:10;;;;;;;16.02;9.52;;;4.90;99.90;;;;;;5058467;28;20283;-76
2021/12/10 05:48:38;;;;;;;17.10;12.00;;;4.90;99.90;;;;;;5054583;28;20286;-73
2021/12/10 05:51:05;;;;;;;19.38;11.20;;;4.80;99.90;;;;;;5056134;28;20626;-75
2021/12/10 05:53:33;;;;;;;15.65;10.60;;;4.90;99.90;;;;;;5066876;28;20619;-75
2021/12/10 05:56:00;;;;;;;12.52;9.85;;;4.90;99.90;;;;;;5071323;28;20310;-75
2021/12/10 05:58:28;;;;;;;14.40;9.93;;;4.90;99.90;;;;;;5056272;28;20207;-76
2021/12/10 06:01:02;;;;;;;13.63;10.60;;;4.90;99.90;;;;;;5061699;28;20249;-77
2021/12/10 06:03:29;;;;;;;17.48;11.38;;;4.90;99.90;;;;;;5063729;28;20306;-74
2021/12/10 06:05:58;;;;;;;16.00;10.75;;;5.00;99.90;;;;;;5052248;28;20196;-75
2021/12/10 06:08:26;;;;;;;16.08;10.32;;;4.90;99.90;;;;;;5060953;28;20333;-73
2021/12/10 06:10:55;;;;;;;17.40;10.32;;;4.90;99.90;;;;;;5057759;28;20306;-77
2021/12/10 06:13:22;;;;;;;20.13;12.15;;;4.90;99.90;;;;;;5053166;28;20622;-74
2021/12/10 06:15:49;;;;;;;19.67;11.13;;;4.90;99.90;;;;;;5060902;28;20604;-74
2021/12/10 06:18:17;;;;;;;15.20;10.77;;;4.90;99.90;;;;;;5063089;28;20278;-74
2021/12/10 06:20:47;;;;;;;22.05;13.75;;;4.90;99.90;;;;;;5056364;28;20318;-77
2021/12/10 06:23:15;;;;;;;16.02;10.88;;;4.90;99.90;;;;;;5050885;28;20287;-75
2021/12/10 06:25:43;;;;;;;15.90;11.00;;;4.80;99.90;;;;;;5042690;28;20275;-78
2021/12/10 06:28:12;;;;;;;15.93;10.82;;;4.80;99.90;;;;;;5054136;28;20192;-76
2021/12/10 06:30:42;;;;;;;17.20;11.98;;;4.80;99.90;;;;;;5042425;28;20258;-76
2021/12/10 06:33:13;;;;;;;17.48;12.35;;;4.80;99.90;;;;;;5052783;28;20683;-76
2021/12/10 06:35:43;;;;;;;17.65;11.48;;;4.70;99.90;;;;;;5051331;28;20760;-75
2021/12/10 06:38:12;;;;;;;16.38;12.00;;;4.70;99.90;;;;;;5060989;28;20745;-77
2021/12/10 06:40:40;;;;;;;15.48;11.50;;;4.70;99.90;;;;;;5052673;28;20289;-76
2021/12/10 06:43:08;;;;;;;18.05;12.00;;;4.60;99.90;;;;;;5063397;28;20286;-75
2021/12/10 06:45:38;;;;;;;20.80;13.65;;;4.60;99.90;;;;;;5060900;28;20199;-75
2021/12/10 06:48:08;;;;;;;18.20;12.90;;;4.60;99.90;;;;;;5057971;28;20286;-75
2021/12/10 06:50:38;;;;;;;16.58;12.20;;;4.60;99.90;;;;;;5053770;28;20233;-77
2021/12/10 06:53:07;;;;;;;25.35;14.40;;;4.70;99.90;;;;;;5053516;28;20230;-77
2021/12/10 06:55:35;;;;;;;22.30;14.27;;;4.70;99.90;;;;;;5068181;28;20755;-77
2021/12/10 06:58:04;;;;;;;17.55;12.30;;;4.70;99.90;;;;;;5053965;28;20290;-76
2021/12/10 07:00:36;;;;;;;26.52;13.57;;;4.70;99.90;;;;;;5053228;28;20234;-77
2021/12/10 07:03:04;;;;;;;17.50;12.55;;;4.80;99.90;;;;;;5053017;28;20235;-77
2021/12/10 07:05:31;;;;;;;18.13;12.93;;;4.70;99.90;;;;;;5053832;28;20203;-78
2021/12/10 07:08:05;;;;;;;19.52;12.90;;;4.70;99.90;;;;;;5052750;28;20204;-76
2021/12/10 07:10:34;;;;;;;21.85;13.52;;;4.70;99.90;;;;;;5061163;28;20241;-76
2021/12/10 07:13:03;;;;;;;20.38;14.05;;;4.70;99.90;;;;;;5056687;28;20200;-75
2021/12/10 07:15:31;;;;;;;15.90;11.73;;;4.70;99.90;;;;;;5052803;28;20251;-75
2021/12/10 07:17:58;;;;;;;24.13;14.25;;;4.70;99.90;;;;;;5056333;28;20195;-74
2021/12/10 07:20:26;;;;;;;19.90;13.57;;;4.70;99.90;;;;;;5066550;28;20234;-75
2021/12/10 07:22:53;;;;;;;21.67;13.68;;;4.60;99.90;;;;;;5052769;28;20239;-75
2021/12/10 07:25:21;;;;;;;21.10;13.00;;;4.60;99.90;;;;;;5054106;28;20257;-76
2021/12/10 07:27:51;;;;;;;24.30;13.70;;;4.60;99.90;;;;;;5049142;28;20654;-76
2021/12/10 07:30:20;;;;;;;22.27;13.05;;;4.60;99.90;;;;;;5045427;28;20227;-74
2021/12/10 07:32:53;;;;;;;20.52;12.63;;;4.60;99.90;;;;;;5051469;28;20753;-75
2021/12/10 07:35:21;;;;;;;19.08;12.98;;;4.50;99.90;;;;;;5047863;28;20208;-74
2021/12/10 07:37:49;;;;;;;21.10;12.80;;;4.50;99.90;;;;;;5044799;28;20201;-74
2021/12/10 07:40:19;;;;;;;18.85;13.82;;;4.50;99.90;;;;;;5048626;28;20219;-75
2021/12/10 07:42:46;;;;;;;19.83;14.13;;;4.50;99.90;;;;;;5053909;28;20298;-75
2021/12/10 07:45:15;;;;;;;19.60;14.88;;;4.50;99.90;;;;;;5053488;28;20254;-76
2021/12/10 07:47:42;;;;;;;18.30;12.27;;;4.60;99.90;;;;;;5048022;28;20282;-74
2021/12/10 07:50:13;;;;;;;17.92;14.00;;;4.60;99.90;;;;;;5055562;28;20255;-75
2021/12/10 07:52:40;;;;;;;19.38;14.30;;;4.60;99.90;;;;;;5059817;28;20234;-75
2021/12/10 07:55:16;;;;;;;15.23;12.18;;;4.60;99.90;;;;;;5050956;28;20254;-75
2021/12/10 07:57:44;;;;;;;23.95;17.10;;;4.60;99.90;;;;;;5054310;28;20209;-79
2021/12/10 08:00:16;;;;;;;22.55;15.43;;;4.60;99.90;;;;;;5053055;28;20313;-75
2021/12/10 08:02:44;;;;;;;24.75;17.02;;;4.60;99.90;;;;;;5054523;28;20199;-74
2021/12/10 08:05:14;;;;;;;21.95;13.48;;;4.70;99.90;;;;;;5054923;28;20642;-76
2021/12/10 08:07:41;;;;;;;26.00;17.20;;;4.90;99.90;;;;;;5053578;28;20366;-73
2021/12/10 08:10:11;;;;;;;26.77;15.77;;;5.00;99.90;;;;;;5053357;28;20231;-74
2021/12/10 08:12:38;;;;;;;17.35;11.93;;;5.20;99.90;;;;;;5049341;28;20196;-74
2021/12/10 08:15:07;;;;;;;23.17;15.18;;;5.50;99.90;;;;;;5051057;28;20196;-76
2021/12/10 08:17:36;;;;;;;20.63;14.13;;;6.00;99.90;;;;;;5052852;28;20204;-76
2021/12/10 08:20:23;;;;;;;16.08;11.15;;;6.10;99.90;;;;;;5053267;28;20319;-75
2021/12/10 08:22:51;;;;;;;27.98;11.35;;;6.10;99.90;;;;;;5058519;28;20260;-75
2021/12/10 08:25:20;;;;;;;18.95;13.45;;;6.20;99.90;;;;;;5053554;28;20299;-75
2021/12/10 08:27:48;;;;;;;21.65;13.10;;;6.10;99.90;;;;;;5055704;28;20674;-74
2021/12/10 08:30:18;;;;;;;17.80;12.88;;;6.00;99.90;;;;;;5062275;28;20227;-75
2021/12/10 08:32:47;;;;;;;18.00;13.07;;;6.00;99.90;;;;;;5061820;28;20329;-76
2021/12/10 08:35:20;;;;;;;15.52;12.10;;;5.90;99.90;;;;;;5050561;28;20268;-76
2021/12/10 08:37:47;;;;;;;27.40;13.85;;;6.10;99.90;;;;;;5032334;28;20212;-78
2021/12/10 08:40:23;;;;;;;19.23;14.02;;;6.10;99.90;;;;;;5056721;28;20309;-77
2021/12/10 08:42:52;;;;;;;22.25;13.98;;;6.10;99.90;;;;;;5054611;28;20627;-75
2021/12/10 08:45:21;;;;;;;22.02;12.40;;;6.30;99.90;;;;;;5063672;28;20213;-76
2021/12/10 08:47:50;;;;;;;16.08;11.30;;;7.00;99.90;;;;;;5055454;28;20279;-78
2021/12/10 08:50:23;;;;;;;16.85;11.13;;;7.60;99.90;;;;;;5058748;28;20249;-75
2021/12/10 08:52:51;;;;;;;13.13;9.05;;;8.30;99.90;;;;;;5054988;28;20704;-76
2021/12/10 08:55:19;;;;;;;15.05;10.10;;;8.90;99.90;;;;;;5060390;28;20227;-78
2021/12/10 08:57:47;;;;;;;14.13;10.23;;;9.50;99.90;;;;;;5054708;28;20246;-76
2021/12/10 09:00:16;;;;;;;14.30;10.57;;;9.70;99.90;;;;;;5056534;28;20235;-76
2021/12/10 09:02:43;;;;;;;17.95;12.40;;;9.80;99.90;;;;;;5060037;28;20194;-76
2021/12/10 09:05:18;;;;;;;15.80;11.70;;;10.00;99.90;;;;;;5058933;28;20204;-76
2021/12/10 09:07:45;;;;;;;15.43;11.35;;;10.50;99.90;;;;;;5057693;28;20281;-76
2021/12/10 09:10:15;;;;;;;14.35;10.00;;;10.70;99.90;;;;;;5058709;28;20230;-76
2021/12/10 09:12:42;;;;;;;13.27;10.20;;;11.20;99.90;;;;;;5057514;28;20209;-74
2021/12/10 09:15:16;;;;;;;14.63;11.77;;;11.60;99.90;;;;;;5062141;28;20278;-76
2021/12/10 09:17:44;;;;;;;16.63;10.40;;;11.70;99.90;;;;;;5057636;28;20735;-75
2021/12/10 09:20:15;;;;;;;12.60;9.95;;;11.90;99.90;;;;;;5058168;28;20335;-75
2021/12/10 09:22:44;;;;;;;11.82;8.90;;;12.30;98.70;;;;;;5058065;28;20299;-75
2021/12/10 09:25:13;;;;;;;10.85;9.18;;;12.30;98.90;;;;;;5052106;28;20263;-76
2021/12/10 09:27:41;;;;;;;13.88;11.13;;;12.20;98.30;;;;;;5057510;28;20199;-75
2021/12/10 09:30:14;;;;;;;15.95;12.23;;;12.20;99.40;;;;;;5063150;28;20230;-75
2021/12/10 09:32:41;;;;;;;14.93;11.30;;;12.50;99.50;;;;;;5047695;28;20199;-76
2021/12/10 09:35:13;;;;;;;15.63;11.20;;;12.20;98.30;;;;;;5057805;28;20234;-76
2021/12/10 09:37:41;;;;;;;17.33;13.68;;;12.10;99.00;;;;;;5059645;28;20201;-75
2021/12/10 09:40:14;;;;;;;16.92;11.05;;;12.10;98.70;;;;;;5056491;28;20215;-74
2021/12/10 09:42:41;;;;;;;16.58;10.20;;;12.10;98.30;;;;;;5062084;28;20313;-76
2021/12/10 09:45:10;;;;;;;15.15;11.18;;;12.20;98.50;;;;;;5062614;28;20219;-76
2021/12/10 09:47:37;;;;;;;12.85;9.13;;;12.30;97.80;;;;;;5062275;28;20203;-76
2021/12/10 09:50:06;;;;;;;14.43;10.60;;;12.70;96.70;;;;;;5059746;28;20233;-77
2021/12/10 09:52:34;;;;;;;14.65;9.35;;;12.40;96.50;;;;;;5060976;28;20285;-77
2021/12/10 09:55:02;;;;;;;15.80;10.05;;;12.60;96.90;;;;;;5055165;28;20209;-76
2021/12/10 09:57:32;;;;;;;12.85;8.63;;;12.90;95.70;;;;;;5060266;28;20306;-77
2021/12/10 10:00:01;;;;;;;14.10;10.20;;;12.40;95.90;;;;;;5055303;28;20216;-76
2021/12/10 10:02:29;;;;;;;11.88;9.77;;;12.00;97.10;;;;;;5054587;28;20235;-77
2021/12/10 10:04:57;;;;;;;12.40;9.20;;;11.90;97.60;;;;;;5052037;28;20303;-75
2021/12/10 10:07:27;;;;;;;17.20;9.45;;;11.70;98.00;;;;;;5049841;28;20203;-77
2021/12/10 10:10:05;;;;;;;12.35;10.40;;;11.40;98.40;;;;;;5059532;28;20232;-75
2021/12/10 10:12:36;;;;;;;14.02;9.93;;;11.20;99.20;;;;;;5057756;28;20227;-76
2021/12/10 10:15:08;;;;;;;15.75;9.95;;;10.90;99.80;;;;;;5059374;28;20198;-76
2021/12/10 10:17:36;;;;;;;11.10;8.98;;;10.90;99.90;;;;;;5056328;28;20269;-77
2021/12/10 10:20:05;;;;;;;11.05;8.18;;;10.90;99.90;;;;;;5058870;28;20313;-77
2021/12/10 10:22:33;;;;;;;12.75;9.60;;;10.70;99.90;;;;;;5052956;28;20283;-76
2021/12/10 10:25:01;;;;;;;15.48;9.00;;;10.20;99.90;;;;;;5054420;28;20213;-76
2021/12/10 10:27:32;;;;;;;12.77;9.00;;;9.60;99.90;;;;;;5053050;28;20297;-77
2021/12/10 10:30:09;;;;;;;15.10;10.35;;;9.00;99.90;;;;;;5054589;28;20723;-78
2021/12/10 10:32:36;;;;;;;14.23;8.50;;;8.50;99.90;;;;;;5043386;28;20525;-74
2021/12/10 10:35:08;;;;;;;12.93;10.38;;;8.00;99.90;;;;;;5051005;28;20290;-75
2021/12/10 10:37:35;;;;;;;15.18;10.63;;;7.60;99.90;;;;;;5050635;28;20303;-75
2021/12/10 10:40:08;;;;;;;14.20;10.07;;;7.30;99.90;;;;;;5048146;28;20700;-76
2021/12/10 10:42:35;;;;;;;13.40;9.40;;;7.20;99.90;;;;;;5048892;28;20233;-75
2021/12/10 10:45:08;;;;;;;17.13;10.70;;;7.30;99.90;;;;;;5044394;28;20203;-78
2021/12/10 10:47:36;;;;;;;13.45;10.88;;;7.20;99.90;;;;;;5058617;28;20280;-79
2021/12/10 10:50:11;;;;;;;14.05;9.50;;;7.50;99.90;;;;;;5041594;28;20254;-74
2021/12/10 10:52:40;;;;;;;14.38;9.98;;;7.60;99.90;;;;;;5047377;28;20210;-72
2021/12/10 10:55:21;;;;;;;14.43;10.38;;;7.70;99.90;;;;;;5042440;28;20200;-73
2021/12/10 10:57:55;;;;;;;18.65;9.68;;;7.50;99.90;;;;;;5051171;28;20215;-73
2021/12/10 11:00:37;;;;;;;14.50;10.57;;;7.30;99.90;;;;;;5048301;28;20266;-73
2021/12/10 11:03:09;;;;;;;28.17;10.95;;;7.20;99.90;;;;;;5061610;28;20238;-75
2021/12/10 11:05:46;;;;;;;14.30;10.07;;;7.00;99.90;;;;;;5047205;28;20243;-72
2021/12/10 11:08:13;;;;;;;16.08;10.15;;;7.00;99.90;;;;;;5056894;28;20247;-73
2021/12/10 11:10:43;;;;;;;16.00;10.65;;;7.00;99.90;;;;;;5046595;28;20238;-73
2021/12/10 11:13:15;;;;;;;13.38;9.88;;;6.90;99.90;;;;;;5055859;28;20209;-73
2021/12/10 11:16:01;;;;;;;21.02;9.73;;;7.00;99.90;;;;;;5045251;28;20664;-73
2021/12/10 11:18:30;;;;;;;12.05;8.60;;;7.00;99.90;;;;;;5050167;28;20221;-74
2021/12/10 11:20:57;;;;;;;13.25;10.15;;;7.00;99.90;;;;;;5053110;28;20230;-73
2021/12/10 11:23:26;;;;;;;17.40;10.40;;;6.90;99.90;;;;;;5046903;28;20210;-72
2021/12/10 11:25:56;;;;;;;14.68;9.75;;;6.80;99.90;;;;;;5052204;28;20214;-73
2021/12/10 11:28:30;;;;;;;16.80;9.15;;;6.80;99.90;;;;;;5045004;28;20677;-73
2021/12/10 11:31:03;;;;;;;16.42;9.32;;;6.80;99.90;;;;;;5046531;28;20253;-74
2021/12/10 11:33:34;;;;;;;14.98;9.45;;;6.80;99.90;;;;;;5039350;28;20201;-73
2021/12/10 11:36:07;;;;;;;11.73;9.15;;;6.70;99.90;;;;;;5048591;28;20210;-75
2021/12/10 11:38:35;;;;;;;20.98;11.50;;;6.80;99.90;;;;;;5042439;28;20208;-73
2021/12/10 11:41:07;;;;;;;14.68;9.35;;;6.70;99.90;;;;;;5048431;28;20279;-73
2021/12/10 11:43:56;;;;;;;15.07;10.82;;;6.70;99.90;;;;;;5053090;28;20257;-73
2021/12/10 11:46:43;;;;;;;14.90;9.65;;;6.80;99.90;;;;;;5050338;28;20227;-73
2021/12/10 11:49:17;;;;;;;15.25;9.48;;;6.80;99.90;;;;;;5038820;28;20202;-72
2021/12/10 11:51:47;;;;;;;18.13;8.65;;;6.80;99.90;;;;;;5046300;28;20572;-74
2021/12/10 11:54:24;;;;;;;17.23;9.45;;;6.70;99.90;;;;;;5063139;28;20292;-75
2021/12/10 11:56:56;;;;;;;13.23;9.98;;;6.70;99.90;;;;;;5052999;28;20767;-76
2021/12/10 11:59:27;;;;;;;11.23;9.10;;;6.70;99.90;;;;;;5052747;28;20197;-77
2021/12/10 12:01:58;;;;;;;12.20;9.40;;;6.70;99.90;;;;;;5052785;28;20315;-74
2021/12/10 12:04:30;;;;;;;12.45;9.50;;;6.80;99.90;;;;;;5052037;28;20588;-74
2021/12/10 12:07:19;;;;;;;16.23;9.77;;;6.80;99.90;;;;;;5051874;28;20570;-74
2021/12/10 12:09:49;;;;;;;10.95;8.85;;;6.70;99.90;;;;;;5042182;28;20213;-74
2021/12/10 12:12:18;;;;;;;19.00;11.30;;;6.80;99.90;;;;;;5045343;28;20233;-74
2021/12/10 12:14:51;;;;;;;10.60;8.43;;;6.80;99.90;;;;;;5050572;28;20198;-73
2021/12/10 12:17:36;;;;;;;14.70;9.55;;;6.80;99.90;;;;;;5050830;28;20228;-71
2021/12/10 12:20:22;;;;;;;13.07;9.13;;;6.70;99.90;;;;;;5047343;28;20226;-73
2021/12/10 12:25:42;;;;;;;19.67;8.20;;;6.80;99.90;;;;;;5048503;28;20218;-72
2021/12/10 12:28:11;;;;;;;12.52;8.25;;;6.80;99.90;;;;;;5060994;28;20191;-74
2021/12/10 12:30:55;;;;;;;16.50;9.30;;;6.90;99.90;;;;;;5042717;28;20222;-73
2021/12/10 12:33:25;;;;;;;10.48;7.03;;;7.10;99.90;;;;;;5054094;28;20563;-72
2021/12/10 12:35:57;;;;;;;12.38;7.03;;;7.10;99.90;;;;;;5052794;28;20611;-71
2021/12/10 12:38:29;;;;;;;17.45;8.68;;;7.10;99.90;;;;;;5055430;28;20210;-73
2021/12/10 12:41:19;;;;;;;9.60;7.78;;;7.10;99.90;;;;;;5051971;28;20230;-71
2021/12/10 12:43:50;;;;;;;13.27;8.00;;;7.20;99.90;;;;;;5040727;28;20765;-73
2021/12/10 12:46:17;;;;;;;9.65;7.35;;;7.20;99.90;;;;;;5045344;28;20204;-74
2021/12/10 12:48:57;;;;;;;11.43;7.15;;;7.00;99.90;;;;;;5045538;28;20655;-74
2021/12/10 12:51:25;;;;;;;10.07;7.15;;;7.00;99.90;;;;;;5050251;28;20355;-71
2021/12/10 12:53:53;;;;;;;11.02;7.82;;;6.80;99.90;;;;;;5044400;28;20246;-72
2021/12/10 12:56:23;;;;;;;11.52;7.40;;;6.90;99.90;;;;;;5047370;28;20288;-72
2021/12/10 12:58:57;;;;;;;9.25;5.70;;;6.80;99.90;;;;;;5044070;28;20202;-70
2021/12/10 13:01:30;;;;;;;12.55;7.10;;;6.70;99.90;;;;;;5026427;28;20589;-70
2021/12/10 13:04:06;;;;;;;13.75;6.75;;;6.70;99.90;;;;;;5045081;28;20744;-73
2021/12/10 13:06:36;;;;;;;10.20;6.70;;;6.70;99.90;;;;;;5043649;28;20202;-73